createdAt,value
2022-12-03T00:01:10.237Z,5.78
2022-12-03T00:03:13.716Z,7.15
2022-12-03T00:05:17.333Z,6.95
2022-12-03T00:07:22.259Z,5.70
2022-12-03T00:09:25.643Z,6.15
2022-12-03T00:11:29.165Z,7.18
2022-12-03T00:13:32.720Z,6.82
2022-12-03T00:15:36.097Z,6.25
2022-12-03T00:17:39.488Z,6.53
2022-12-03T00:19:42.777Z,6.38
2022-12-03T00:21:46.070Z,5.53
2022-12-03T00:23:50.789Z,6.00
2022-12-03T00:25:54.086Z,5.60
2022-12-03T00:27:57.336Z,5.43
2022-12-03T00:30:00.645Z,5.40
2022-12-03T00:32:03.929Z,5.03
2022-12-03T00:34:07.269Z,5.15
2022-12-03T00:36:10.989Z,6.15
2022-12-03T00:38:14.488Z,5.63
2022-12-03T00:40:19.304Z,5.00
2022-12-03T00:42:22.665Z,5.15
2022-12-03T00:44:26.061Z,4.50
2022-12-03T00:46:29.528Z,4.07
2022-12-03T00:48:32.996Z,3.97
2022-12-03T00:50:36.271Z,5.15
2022-12-03T00:52:39.642Z,5.95
2022-12-03T00:54:42.947Z,5.22
2022-12-03T00:56:47.649Z,5.10
2022-12-03T00:58:50.963Z,4.95
2022-12-03T01:00:54.395Z,6.00
2022-12-03T01:02:57.885Z,4.85
2022-12-03T01:05:01.512Z,4.93
2022-12-03T01:07:04.921Z,5.57
2022-12-03T01:09:08.280Z,5.75
2022-12-03T01:11:25.536Z,6.40
2022-12-03T01:13:30.302Z,5.53
2022-12-03T01:15:33.631Z,5.60
2022-12-03T01:17:37.361Z,5.03
2022-12-03T01:19:44.980Z,4.57
2022-12-03T01:21:52.697Z,4.05
2022-12-03T01:23:56.036Z,5.18
2022-12-03T01:25:59.373Z,4.43
2022-12-03T01:28:02.681Z,4.55
2022-12-03T01:30:09.259Z,5.28
2022-12-03T01:32:17.377Z,4.80
2022-12-03T01:34:20.761Z,4.72
2022-12-03T01:36:24.163Z,4.97
2022-12-03T01:38:27.437Z,4.45
2022-12-03T01:40:30.913Z,5.68
2022-12-03T01:42:37.367Z,4.85
2022-12-03T01:44:41.569Z,4.97
2022-12-03T01:46:47.657Z,4.78
2022-12-03T01:48:53.778Z,4.47
2022-12-03T01:50:57.077Z,4.63
2022-12-03T01:53:04.514Z,4.50
2022-12-03T01:55:14.990Z,4.97
2022-12-03T01:57:22.620Z,4.53
2022-12-03T01:59:33.420Z,4.35
2022-12-03T02:01:36.765Z,5.07
2022-12-03T02:03:43.623Z,4.85
2022-12-03T02:05:47.335Z,5.85
2022-12-03T02:07:51.070Z,5.15
2022-12-03T02:09:56.176Z,4.05
2022-12-03T02:11:59.660Z,5.25
2022-12-03T02:14:06.395Z,4.78
2022-12-03T02:16:10.160Z,4.45
2022-12-03T02:18:13.623Z,4.68
2022-12-03T02:20:20.369Z,4.90
2022-12-03T02:22:32.685Z,4.47
2022-12-03T02:24:41.423Z,4.60
2022-12-03T02:26:46.184Z,4.90
2022-12-03T02:28:49.497Z,4.90
2022-12-03T02:30:52.902Z,5.10
2022-12-03T02:32:57.639Z,4.88
2022-12-03T02:35:00.981Z,6.05
2022-12-03T02:37:06.978Z,5.70
2022-12-03T02:39:10.509Z,5.03
2022-12-03T02:41:32.121Z,5.80
2022-12-03T02:43:37.650Z,5.40
2022-12-03T02:45:43.893Z,5.38
2022-12-03T02:47:50.764Z,4.97
2022-12-03T02:49:54.071Z,6.13
2022-12-03T02:51:57.784Z,4.30
2022-12-03T02:54:01.664Z,5.32
2022-12-03T02:56:06.584Z,4.93
2022-12-03T02:58:11.234Z,4.75
2022-12-03T03:00:17.507Z,4.82
2022-12-03T03:02:21.704Z,4.70
2022-12-03T03:04:25.490Z,4.55
2022-12-03T03:06:29.042Z,6.47
2022-12-03T03:08:32.970Z,5.53
2022-12-03T03:10:38.212Z,5.60
2022-12-03T03:12:41.996Z,5.35
2022-12-03T03:14:46.581Z,5.10
2022-12-03T03:16:56.027Z,5.47
2022-12-03T03:18:59.583Z,5.45
2022-12-03T03:21:03.718Z,4.93
2022-12-03T03:23:13.987Z,5.45
2022-12-03T03:25:21.012Z,4.87
2022-12-03T03:27:24.451Z,5.55
2022-12-03T03:29:27.930Z,6.13
2022-12-03T03:31:31.449Z,5.65
2022-12-03T03:33:37.659Z,5.13
2022-12-03T03:35:41.736Z,5.60
2022-12-03T03:37:45.152Z,7.32
2022-12-03T03:39:48.828Z,6.35
2022-12-03T03:41:52.277Z,5.60
2022-12-03T03:43:56.442Z,5.28
2022-12-03T03:46:00.171Z,6.00
2022-12-03T03:48:04.007Z,6.70
2022-12-03T03:50:11.398Z,5.10
2022-12-03T03:52:15.037Z,6.32
2022-12-03T03:54:18.867Z,6.28
2022-12-03T03:56:24.673Z,5.88
2022-12-03T03:58:28.240Z,6.97
2022-12-03T04:00:32.485Z,5.40
2022-12-03T04:02:35.983Z,5.32
2022-12-03T04:04:39.370Z,6.00
2022-12-03T04:06:44.111Z,5.03
2022-12-03T04:08:47.465Z,6.38
2022-12-03T04:11:08.543Z,4.72
2022-12-03T04:13:10.958Z,7.43
2022-12-03T04:15:14.491Z,5.72
2022-12-03T04:17:18.817Z,6.30
2022-12-03T04:19:23.398Z,5.85
2022-12-03T04:21:57.490Z,6.40
2022-12-03T04:24:02.576Z,7.03
2022-12-03T04:26:23.730Z,7.20
2022-12-03T04:28:44.936Z,7.05
2022-12-03T04:31:23.601Z,7.00
2022-12-03T04:33:44.569Z,8.00
2022-12-03T04:35:47.179Z,7.18
2022-12-03T04:37:50.648Z,6.75
2022-12-03T04:39:55.492Z,6.93
2022-12-03T04:41:58.832Z,8.00
2022-12-03T04:44:19.957Z,7.97
2022-12-03T04:46:23.344Z,8.43
2022-12-03T04:48:26.933Z,7.70
2022-12-03T04:50:30.203Z,9.02
2022-12-03T04:52:33.499Z,6.45
2022-12-03T04:54:36.990Z,7.22
2022-12-03T04:56:41.644Z,6.10
2022-12-03T04:58:47.143Z,8.00
2022-12-03T05:00:50.587Z,7.85
2022-12-03T05:02:53.975Z,6.10
2022-12-03T05:04:57.351Z,6.57
2022-12-03T05:07:00.682Z,9.90
2022-12-03T05:09:04.627Z,9.20
2022-12-03T05:11:08.263Z,9.15
2022-12-03T05:13:12.915Z,8.27
2022-12-03T05:15:16.525Z,8.65
2022-12-03T05:17:19.914Z,7.75
2022-12-03T05:19:43.288Z,8.23
2022-12-03T05:21:45.632Z,8.43
2022-12-03T05:23:48.962Z,8.30
2022-12-03T05:25:52.482Z,7.07
2022-12-03T05:27:55.797Z,7.05
2022-12-03T05:30:00.450Z,7.20
2022-12-03T05:32:03.906Z,7.32
2022-12-03T05:34:07.178Z,9.02
2022-12-03T05:36:10.888Z,9.10
2022-12-03T05:38:14.476Z,8.70
2022-12-03T05:40:17.989Z,7.57
2022-12-03T05:42:39.251Z,8.80
2022-12-03T05:44:42.533Z,7.65
2022-12-03T05:46:47.250Z,6.53
2022-12-03T05:48:50.832Z,7.43
2022-12-03T05:50:54.103Z,7.32
2022-12-03T05:52:58.758Z,5.50
2022-12-03T05:55:02.103Z,8.75
2022-12-03T05:57:05.502Z,6.40
2022-12-03T05:59:08.796Z,6.38
2022-12-03T06:01:12.170Z,7.47
2022-12-03T06:03:16.892Z,6.85
2022-12-03T06:05:20.823Z,8.75
2022-12-03T06:07:24.325Z,7.03
2022-12-03T06:09:27.727Z,7.70
2022-12-03T06:11:33.916Z,7.47
2022-12-03T06:13:37.244Z,6.43
2022-12-03T06:15:43.956Z,7.70
2022-12-03T06:17:47.716Z,7.57
2022-12-03T06:19:52.357Z,8.32
2022-12-03T06:21:55.691Z,8.02
2022-12-03T06:23:59.909Z,7.72
2022-12-03T06:26:03.209Z,8.73
2022-12-03T06:28:07.325Z,6.63
2022-12-03T06:30:13.396Z,6.68
2022-12-03T06:32:16.752Z,6.32
2022-12-03T06:34:20.115Z,6.78
2022-12-03T06:36:26.121Z,8.65
2022-12-03T06:38:29.476Z,7.60
2022-12-03T06:40:32.773Z,7.30
2022-12-03T06:42:36.085Z,6.88
2022-12-03T06:44:39.402Z,5.85
2022-12-03T06:46:42.760Z,7.43
2022-12-03T06:48:46.518Z,5.70
2022-12-03T06:50:49.937Z,5.95
2022-12-03T06:52:54.550Z,6.38
2022-12-03T06:54:57.998Z,6.07
2022-12-03T06:57:04.251Z,6.22
2022-12-03T06:59:07.626Z,7.05
2022-12-03T07:01:11.079Z,6.25
2022-12-03T07:03:14.527Z,6.20
2022-12-03T07:05:18.209Z,7.72
2022-12-03T07:07:21.569Z,6.30
2022-12-03T07:09:26.373Z,7.32
2022-12-03T07:11:32.754Z,6.82
2022-12-03T07:13:36.036Z,6.00
2022-12-03T07:15:39.453Z,6.57
2022-12-03T07:17:42.795Z,7.43
2022-12-03T07:19:46.066Z,10.98
2022-12-03T07:21:49.720Z,8.02
2022-12-03T07:23:52.972Z,8.35
2022-12-03T07:25:57.645Z,7.07
2022-12-03T07:28:01.003Z,7.25
2022-12-03T07:30:05.128Z,5.53
2022-12-03T07:32:08.453Z,7.15
2022-12-03T07:34:11.816Z,7.65
2022-12-03T07:36:15.149Z,6.38
2022-12-03T07:38:18.513Z,6.18
2022-12-03T07:40:22.132Z,5.55
2022-12-03T07:42:27.045Z,5.53
2022-12-03T07:44:31.577Z,5.97
2022-12-03T07:46:35.141Z,7.63
2022-12-03T07:48:38.964Z,6.15
2022-12-03T07:50:42.276Z,5.85
2022-12-03T07:52:45.649Z,6.75
2022-12-03T07:54:49.805Z,6.30
2022-12-03T07:56:57.978Z,6.50
2022-12-03T07:59:05.763Z,6.10
2022-12-03T08:01:10.302Z,5.10
2022-12-03T08:03:13.801Z,7.05
2022-12-03T08:05:17.101Z,5.78
2022-12-03T08:07:20.363Z,6.20
2022-12-03T08:09:23.696Z,7.00
2022-12-03T08:11:30.172Z,6.28
2022-12-03T08:13:35.243Z,7.35
2022-12-03T08:15:39.947Z,6.72
2022-12-03T08:17:44.313Z,6.68
2022-12-03T08:19:48.358Z,7.45
2022-12-03T08:21:55.196Z,6.50
2022-12-03T08:24:13.755Z,9.35
2022-12-03T08:26:23.339Z,8.48
2022-12-03T08:28:27.528Z,7.80
2022-12-03T08:30:30.912Z,7.78
2022-12-03T08:32:36.005Z,7.80
2022-12-03T08:34:40.842Z,6.85
2022-12-03T08:36:44.653Z,7.22
2022-12-03T08:38:52.147Z,7.03
2022-12-03T08:40:56.295Z,8.10
2022-12-03T08:42:58.611Z,6.50
2022-12-03T08:45:40.982Z,7.22
2022-12-03T08:47:46.282Z,6.63
2022-12-03T08:49:54.867Z,6.72
2022-12-03T08:52:01.523Z,7.30
2022-12-03T08:54:13.835Z,7.13
2022-12-03T08:56:24.879Z,7.93
2022-12-03T08:58:38.137Z,6.45
2022-12-03T09:00:42.745Z,7.30
2022-12-03T09:02:50.417Z,8.18
2022-12-03T09:04:54.797Z,7.68
2022-12-03T09:06:58.896Z,7.28
2022-12-03T09:09:06.530Z,7.07
2022-12-03T09:11:10.286Z,7.18
2022-12-03T09:13:13.630Z,6.65
2022-12-03T09:15:17.157Z,7.15
2022-12-03T09:17:20.438Z,6.65
2022-12-03T09:19:26.084Z,7.15
2022-12-03T09:21:29.442Z,7.38
2022-12-03T09:23:33.633Z,7.18
2022-12-03T09:25:36.945Z,6.97
2022-12-03T09:27:40.334Z,6.32
2022-12-03T09:29:43.692Z,6.30
2022-12-03T09:31:47.039Z,6.80
2022-12-03T09:33:50.668Z,10.03
2022-12-03T09:35:55.350Z,8.52
2022-12-03T09:37:58.770Z,7.80
2022-12-03T09:40:02.340Z,6.18
2022-12-03T09:42:06.146Z,6.43
2022-12-03T09:44:15.777Z,6.03
2022-12-03T09:46:22.118Z,6.45
2022-12-03T09:48:25.998Z,7.10
2022-12-03T09:50:30.191Z,6.00
2022-12-03T09:52:35.483Z,6.45
2022-12-03T09:54:45.596Z,6.32
2022-12-03T09:56:50.325Z,6.97
2022-12-03T09:58:53.781Z,6.63
2022-12-03T10:00:58.009Z,6.15
2022-12-03T10:03:04.010Z,5.75
2022-12-03T10:05:07.806Z,6.15
2022-12-03T10:07:11.586Z,6.88
2022-12-03T10:09:23.374Z,6.63
2022-12-03T10:11:27.624Z,6.30
2022-12-03T10:13:34.544Z,5.90
2022-12-03T10:15:38.224Z,6.95
2022-12-03T10:17:43.841Z,7.82
2022-12-03T10:19:47.399Z,6.70
2022-12-03T10:21:51.377Z,6.20
2022-12-03T10:24:20.976Z,4.82
2022-12-03T10:26:39.957Z,5.55
2022-12-03T10:28:47.581Z,5.07
2022-12-03T10:30:56.236Z,6.80
2022-12-03T10:33:02.611Z,5.28
2022-12-03T10:35:11.832Z,5.65
2022-12-03T10:37:17.775Z,6.32
2022-12-03T10:39:22.460Z,5.30
2022-12-03T10:41:27.989Z,9.00
2022-12-03T10:43:31.320Z,6.90
2022-12-03T10:45:35.531Z,7.10
2022-12-03T10:47:39.454Z,7.20
2022-12-03T10:49:43.588Z,6.00
2022-12-03T10:51:48.692Z,6.00
2022-12-03T10:53:52.276Z,6.75
2022-12-03T10:55:59.487Z,5.78
2022-12-03T10:58:02.954Z,7.47
2022-12-03T11:00:08.495Z,5.77
2022-12-03T11:02:19.761Z,6.47
2022-12-03T11:04:27.052Z,5.85
2022-12-03T11:06:32.866Z,6.38
2022-12-03T11:08:38.245Z,5.55
2022-12-03T11:10:41.652Z,5.60
2022-12-03T11:13:26.058Z,6.93
2022-12-03T11:15:43.540Z,6.40
2022-12-03T11:17:49.991Z,7.10
2022-12-03T11:19:53.414Z,7.10
2022-12-03T11:22:27.063Z,6.15
2022-12-03T11:24:30.804Z,6.05
2022-12-03T11:27:25.854Z,6.18
2022-12-03T11:29:50.648Z,6.47
2022-12-03T11:31:53.982Z,6.40
2022-12-03T11:34:49.501Z,6.20
2022-12-03T11:37:23.225Z,6.75
2022-12-03T11:40:14.613Z,24.88
2022-12-03T11:42:39.933Z,7.90
2022-12-03T11:44:47.865Z,7.93
2022-12-03T11:46:52.646Z,7.03
2022-12-03T11:49:00.126Z,7.60
2022-12-03T11:51:03.468Z,6.78
2022-12-03T11:53:15.409Z,6.95
2022-12-03T11:55:25.084Z,7.60
2022-12-03T11:57:38.313Z,6.03
2022-12-03T12:00:05.911Z,5.88
2022-12-03T12:02:21.886Z,6.30
2022-12-03T12:04:32.044Z,6.13
2022-12-03T12:06:42.602Z,7.75
2022-12-03T12:08:57.358Z,7.80
2022-12-03T12:11:00.818Z,7.30
2022-12-03T12:13:04.297Z,6.20
2022-12-03T12:15:35.328Z,6.10
2022-12-03T12:17:40.261Z,5.82
2022-12-03T12:19:46.428Z,6.32
2022-12-03T12:21:51.799Z,6.10
2022-12-03T12:23:55.149Z,11.50
2022-12-03T12:26:07.458Z,8.70
2022-12-03T12:28:10.950Z,8.30
2022-12-03T12:30:16.832Z,6.68
2022-12-03T12:32:24.155Z,6.47
2022-12-03T12:34:28.820Z,6.78
2022-12-03T12:36:32.164Z,7.40
2022-12-03T12:38:35.422Z,6.82
2022-12-03T12:40:40.779Z,7.82
2022-12-03T12:42:53.300Z,8.63
2022-12-03T12:45:02.017Z,7.90
2022-12-03T12:47:13.405Z,7.50
2022-12-03T12:49:20.535Z,7.53
2022-12-03T12:51:26.267Z,9.65
2022-12-03T12:53:32.313Z,8.15
2022-12-03T12:55:35.761Z,8.15
2022-12-03T12:57:39.424Z,6.65
2022-12-03T12:59:42.912Z,6.35
2022-12-03T13:01:48.563Z,8.52
2022-12-03T13:03:53.177Z,6.70
2022-12-03T13:06:00.922Z,7.57
2022-12-03T13:08:16.605Z,13.13
2022-12-03T13:10:29.150Z,9.35
2022-12-03T13:12:32.515Z,7.68
2022-12-03T13:14:37.899Z,9.20
2022-12-03T13:16:41.327Z,9.90
2022-12-03T13:18:47.414Z,7.90
2022-12-03T13:20:50.724Z,8.03
2022-12-03T13:22:54.039Z,7.82
2022-12-03T13:24:59.385Z,9.07
2022-12-03T13:27:09.962Z,8.52
2022-12-03T13:29:17.099Z,7.22
2022-12-03T13:31:26.259Z,7.13
2022-12-03T13:33:31.125Z,7.72
2022-12-03T13:35:36.398Z,8.48
2022-12-03T13:37:39.898Z,8.90
2022-12-03T13:39:47.418Z,7.20
2022-12-03T13:42:10.003Z,7.70
2022-12-03T13:44:19.031Z,8.25
2022-12-03T13:46:22.600Z,6.50
2022-12-03T13:48:30.888Z,9.18
2022-12-03T13:50:37.822Z,7.72
2022-12-03T13:52:41.170Z,7.93
2022-12-03T13:54:44.582Z,7.95
2022-12-03T13:56:48.419Z,8.33
2022-12-03T13:58:53.054Z,9.03
2022-12-03T14:00:56.580Z,8.83
2022-12-03T14:03:00.017Z,8.02
2022-12-03T14:05:03.290Z,9.73
2022-12-03T14:07:06.667Z,9.25
2022-12-03T14:09:09.966Z,10.48
2022-12-03T14:11:34.210Z,8.40
2022-12-03T14:13:36.562Z,8.00
2022-12-03T14:15:41.263Z,9.80
2022-12-03T14:17:46.447Z,7.53
2022-12-03T14:19:49.988Z,7.20
2022-12-03T14:21:53.356Z,10.03
2022-12-03T14:23:56.671Z,8.13
2022-12-03T14:26:00.131Z,8.90
2022-12-03T14:28:08.490Z,7.05
2022-12-03T14:30:12.734Z,6.85
2022-12-03T14:32:17.745Z,8.20
2022-12-03T14:34:21.275Z,9.05
2022-12-03T14:36:24.564Z,9.70
2022-12-03T14:38:28.372Z,7.97
2022-12-03T14:40:31.735Z,8.75
2022-12-03T14:42:35.346Z,12.25
2022-12-03T14:44:40.355Z,8.88
2022-12-03T14:46:43.627Z,8.90
2022-12-03T14:48:48.502Z,10.35
2022-12-03T14:50:52.365Z,9.00
2022-12-03T14:52:55.767Z,10.07
2022-12-03T14:54:59.084Z,9.30
2022-12-03T14:57:02.421Z,9.15
2022-12-03T14:59:05.750Z,9.97
2022-12-03T15:01:09.361Z,8.80
2022-12-03T15:03:12.745Z,8.18
2022-12-03T15:05:18.596Z,10.10
2022-12-03T15:07:23.352Z,7.03
2022-12-03T15:09:27.056Z,7.47
2022-12-03T15:11:30.419Z,9.40
2022-12-03T15:13:33.728Z,11.43
2022-12-03T15:15:37.059Z,11.40
2022-12-03T15:17:40.449Z,10.30
2022-12-03T15:19:43.841Z,11.60
2022-12-03T15:21:48.619Z,8.90
2022-12-03T15:23:51.981Z,10.63
2022-12-03T15:25:55.338Z,9.93
2022-12-03T15:27:58.709Z,11.38
2022-12-03T15:30:02.158Z,10.63
2022-12-03T15:32:05.781Z,9.77
2022-12-03T15:34:09.098Z,9.50
2022-12-03T15:36:12.548Z,10.35
2022-12-03T15:38:17.266Z,11.77
2022-12-03T15:40:20.572Z,9.10
2022-12-03T15:42:24.077Z,10.98
2022-12-03T15:44:27.398Z,11.50
2022-12-03T15:46:31.473Z,9.90
2022-12-03T15:48:35.079Z,11.43
2022-12-03T15:50:40.612Z,10.73
2022-12-03T15:52:43.950Z,10.77
2022-12-03T15:54:50.300Z,10.40
2022-12-03T15:56:57.186Z,8.57
2022-12-03T15:59:01.040Z,10.43
2022-12-03T16:01:04.527Z,9.82
2022-12-03T16:03:08.037Z,8.50
2022-12-03T16:05:13.088Z,8.80
2022-12-03T16:07:16.410Z,9.37
2022-12-03T16:09:25.333Z,10.68
2022-12-03T16:11:31.983Z,11.13
2022-12-03T16:13:35.348Z,11.20
2022-12-03T16:15:38.728Z,11.03
2022-12-03T16:17:42.078Z,10.73
2022-12-03T16:19:45.584Z,10.65
2022-12-03T16:21:48.842Z,11.90
2022-12-03T16:23:52.222Z,11.73
2022-12-03T16:25:55.519Z,12.50
2022-12-03T16:28:00.226Z,11.73
2022-12-03T16:30:04.161Z,11.23
2022-12-03T16:32:07.602Z,13.23
2022-12-03T16:34:11.263Z,11.88
2022-12-03T16:36:14.750Z,12.60
2022-12-03T16:38:18.129Z,11.88
2022-12-03T16:40:21.573Z,14.10
2022-12-03T16:42:25.068Z,13.25
2022-12-03T16:44:43.649Z,12.27
2022-12-03T16:46:47.161Z,12.52
2022-12-03T16:48:51.378Z,13.70
2022-12-03T16:50:54.692Z,13.85
2022-12-03T16:52:58.340Z,11.85
2022-12-03T16:55:01.764Z,11.75
2022-12-03T16:57:05.274Z,11.57
2022-12-03T16:59:08.576Z,11.02
2022-12-03T17:01:13.845Z,11.30
2022-12-03T17:03:18.302Z,12.20
2022-12-03T17:05:21.722Z,12.30
2022-12-03T17:07:25.103Z,10.33
2022-12-03T17:09:28.531Z,12.90
2022-12-03T17:11:32.018Z,15.35
2022-12-03T17:13:35.314Z,12.67
2022-12-03T17:15:38.946Z,11.40
2022-12-03T17:17:43.663Z,11.83
2022-12-03T17:19:46.982Z,10.98
2022-12-03T17:21:50.345Z,10.95
2022-12-03T17:23:53.646Z,11.02
2022-12-03T17:25:56.992Z,9.27
2022-12-03T17:28:00.389Z,9.70
2022-12-03T17:30:05.006Z,10.02
2022-12-03T17:32:08.339Z,9.73
2022-12-03T17:34:13.139Z,9.90
2022-12-03T17:36:16.492Z,8.67
2022-12-03T17:38:19.865Z,9.48
2022-12-03T17:40:23.159Z,10.25
2022-12-03T17:42:26.542Z,10.77
2022-12-03T17:44:29.878Z,10.73
2022-12-03T17:46:33.313Z,9.93
2022-12-03T17:48:36.847Z,8.50
2022-12-03T17:50:42.904Z,10.53
2022-12-03T17:52:46.293Z,10.90
2022-12-03T17:55:10.091Z,10.32
2022-12-03T17:57:13.253Z,10.95
2022-12-03T17:59:17.137Z,8.50
2022-12-03T18:01:20.533Z,10.60
2022-12-03T18:03:23.885Z,10.33
2022-12-03T18:05:27.279Z,10.13
2022-12-03T18:07:32.087Z,11.88
2022-12-03T18:09:35.654Z,9.40
2022-12-03T18:11:39.100Z,9.93
2022-12-03T18:13:42.372Z,11.48
2022-12-03T18:15:45.868Z,11.90
2022-12-03T18:17:49.253Z,9.30
2022-12-03T18:19:53.173Z,11.83
2022-12-03T18:21:56.738Z,10.70
2022-12-03T18:24:02.181Z,10.50
2022-12-03T18:26:06.132Z,11.17
2022-12-03T18:28:09.483Z,11.30
2022-12-03T18:30:13.659Z,10.20
2022-12-03T18:32:28.230Z,10.50
2022-12-03T18:34:31.933Z,10.60
2022-12-03T18:36:37.157Z,8.90
2022-12-03T18:38:40.551Z,8.25
2022-12-03T18:40:46.451Z,10.60
2022-12-03T18:42:49.899Z,11.70
2022-12-03T18:44:55.057Z,8.63
2022-12-03T18:46:59.030Z,8.90
2022-12-03T18:49:02.742Z,9.30
2022-12-03T18:51:10.385Z,9.93
2022-12-03T18:53:15.683Z,9.70
2022-12-03T18:55:20.560Z,8.73
2022-12-03T18:57:25.455Z,11.77
2022-12-03T18:59:28.995Z,9.77
2022-12-03T19:01:33.596Z,17.77
2022-12-03T19:03:36.988Z,10.95
2022-12-03T19:05:40.346Z,12.80
2022-12-03T19:07:44.230Z,11.17
2022-12-03T19:09:47.672Z,11.30
2022-12-03T19:11:51.095Z,9.45
2022-12-03T19:13:57.154Z,10.07
2022-12-03T19:16:02.935Z,9.80
2022-12-03T19:18:07.442Z,11.48
2022-12-03T19:20:12.757Z,29.17
2022-12-03T19:22:16.035Z,21.80
2022-12-03T19:24:26.519Z,15.90
2022-12-03T19:26:29.881Z,17.33
2022-12-03T19:28:33.809Z,14.25
2022-12-03T19:30:38.496Z,14.75
2022-12-03T19:32:41.787Z,13.13
2022-12-03T19:34:45.244Z,13.57
2022-12-03T19:36:48.719Z,14.47
2022-12-03T19:38:56.907Z,14.77
2022-12-03T19:41:02.840Z,12.15
2022-12-03T19:43:06.188Z,12.83
2022-12-03T19:45:10.921Z,11.57
2022-12-03T19:47:15.594Z,11.63
2022-12-03T19:49:20.964Z,11.30
2022-12-03T19:51:34.588Z,11.03
2022-12-03T19:53:39.757Z,9.17
2022-12-03T19:55:43.036Z,10.65
2022-12-03T19:57:46.439Z,9.80
2022-12-03T19:59:49.802Z,12.83
2022-12-03T20:01:53.364Z,12.70
2022-12-03T20:04:00.006Z,9.63
2022-12-03T20:06:03.367Z,10.00
2022-12-03T20:08:08.305Z,9.32
2022-12-03T20:10:11.900Z,10.53
2022-12-03T20:12:15.239Z,9.82
2022-12-03T20:14:18.768Z,9.20
2022-12-03T20:16:22.465Z,9.85
2022-12-03T20:18:25.964Z,10.40
2022-12-03T20:20:30.804Z,10.93
2022-12-03T20:22:34.209Z,11.10
2022-12-03T20:24:37.564Z,10.57
2022-12-03T20:26:40.946Z,10.45
2022-12-03T20:28:45.292Z,10.68
2022-12-03T20:30:58.379Z,11.65
2022-12-03T20:33:01.779Z,9.98
2022-12-03T20:35:06.039Z,9.63
2022-12-03T20:37:10.877Z,10.90
2022-12-03T20:39:14.161Z,9.95
2022-12-03T20:41:19.418Z,10.43
2022-12-03T20:43:23.017Z,11.10
2022-12-03T20:45:27.228Z,10.75
2022-12-03T20:47:30.759Z,9.95
2022-12-03T20:49:34.167Z,10.75
2022-12-03T20:51:37.690Z,8.93
2022-12-03T20:53:43.250Z,10.77
2022-12-03T20:55:46.607Z,11.80
2022-12-03T20:57:50.736Z,9.98
2022-12-03T20:59:55.734Z,10.60
2022-12-03T21:01:59.467Z,11.37
2022-12-03T21:04:04.627Z,10.10
2022-12-03T21:06:08.810Z,8.00
2022-12-03T21:08:12.772Z,10.90
2022-12-03T21:10:33.015Z,8.93
2022-12-03T21:12:38.602Z,8.85
2022-12-03T21:14:42.059Z,8.60
2022-12-03T21:19:12.580Z,9.13
2022-12-03T21:21:18.581Z,8.25
2022-12-03T21:23:22.094Z,9.70
2022-12-03T21:25:26.848Z,8.43
2022-12-03T21:27:32.026Z,8.73
2022-12-03T21:29:35.383Z,11.52
2022-12-03T21:31:41.474Z,9.30
2022-12-03T21:33:45.224Z,9.93
2022-12-03T21:35:48.663Z,7.75
2022-12-03T21:37:52.635Z,8.73
2022-12-03T21:39:56.127Z,9.05
2022-12-03T21:42:25.954Z,9.10
2022-12-03T21:44:24.449Z,9.50
2022-12-03T21:47:10.255Z,10.38
2022-12-03T21:48:51.813Z,10.70
2022-12-03T21:51:03.468Z,9.80
2022-12-03T21:53:07.021Z,14.10
2022-12-03T21:55:11.495Z,11.87
2022-12-03T21:57:16.119Z,11.67
2022-12-03T21:59:19.410Z,10.70
2022-12-03T22:01:24.893Z,10.13
2022-12-03T22:03:28.366Z,10.05
2022-12-03T22:05:31.772Z,11.70
2022-12-03T22:07:35.454Z,10.40
2022-12-03T22:09:38.891Z,10.97
2022-12-03T22:11:42.326Z,10.45
2022-12-03T22:13:47.520Z,10.25
2022-12-03T22:15:50.892Z,9.10
2022-12-03T22:17:54.208Z,10.18
2022-12-03T22:19:57.682Z,9.77
2022-12-03T22:22:01.010Z,12.98
2022-12-03T22:24:04.620Z,10.93
2022-12-03T22:26:09.762Z,11.10
2022-12-03T22:28:13.059Z,10.52
2022-12-03T22:30:17.980Z,10.13
2022-12-03T22:32:21.365Z,9.18
2022-12-03T22:34:24.709Z,11.40
2022-12-03T22:36:28.202Z,10.90
2022-12-03T22:38:33.142Z,10.13
2022-12-03T22:40:39.955Z,11.38
2022-12-03T22:42:49.354Z,9.90
2022-12-03T22:44:54.178Z,9.20
2022-12-03T22:46:58.910Z,8.38
2022-12-03T22:49:07.153Z,9.73
2022-12-03T22:51:14.058Z,12.05
2022-12-03T22:53:17.582Z,8.75
2022-12-03T22:55:20.907Z,8.93
2022-12-03T22:57:24.284Z,11.02
2022-12-03T22:59:27.721Z,9.73
2022-12-03T23:01:33.383Z,9.55
2022-12-03T23:03:38.632Z,8.93
2022-12-03T23:05:42.134Z,9.20
2022-12-03T23:07:45.619Z,11.32
2022-12-03T23:09:49.074Z,9.70
2022-12-03T23:11:52.359Z,9.05
2022-12-03T23:13:55.989Z,10.02
2022-12-03T23:15:59.392Z,8.07
2022-12-03T23:18:02.991Z,9.10
2022-12-03T23:20:09.404Z,9.52
2022-12-03T23:22:12.700Z,10.35
2022-12-03T23:24:16.059Z,8.20
2022-12-03T23:26:19.552Z,11.03
2022-12-03T23:28:22.859Z,9.27
2022-12-03T23:30:26.238Z,13.43
2022-12-03T23:32:29.613Z,10.55
2022-12-03T23:34:33.088Z,10.87
2022-12-03T23:36:37.853Z,10.40
2022-12-03T23:38:41.924Z,10.53
2022-12-03T23:40:48.246Z,13.32
2022-12-03T23:42:51.881Z,11.07
2022-12-03T23:44:55.166Z,9.90
2022-12-03T23:46:58.583Z,10.88
2022-12-03T23:49:03.281Z,9.98
2022-12-03T23:51:07.948Z,10.53
2022-12-03T23:53:12.635Z,11.52
2022-12-03T23:55:16.002Z,10.55
2022-12-03T23:57:19.305Z,10.75
2022-12-03T23:59:22.623Z,9.90
